createdAt,value
2023-03-24T00:01:33.551Z,100137.09
2023-03-24T00:03:35.204Z,100136.13
2023-03-24T00:05:36.974Z,100138.94
2023-03-24T00:07:40.010Z,100132.31
2023-03-24T00:09:43.188Z,100122.16
2023-03-24T00:11:45.041Z,100132.78
2023-03-24T00:13:46.591Z,100123.16
2023-03-24T00:15:48.007Z,100113.56
2023-03-24T00:17:50.058Z,100130.63
2023-03-24T00:19:52.384Z,100112.88
2023-03-24T00:21:53.777Z,100130.13
2023-03-24T00:23:56.228Z,100101.91
2023-03-24T00:26:06.804Z,100130.63
2023-03-24T00:28:08.205Z,100128.28
2023-03-24T00:30:10.442Z,100120.84
2023-03-24T00:32:11.851Z,100125.78
2023-03-24T00:34:13.260Z,100127.78
2023-03-24T00:36:15.045Z,100114.63
2023-03-24T00:38:16.464Z,100126.47
2023-03-24T00:40:20.218Z,100148.09
2023-03-24T00:42:21.772Z,100144.59
2023-03-24T00:44:23.229Z,100147.88
2023-03-24T00:46:25.462Z,100136.28
2023-03-24T00:48:27.790Z,100139.91
2023-03-24T00:50:29.219Z,100137.09
2023-03-24T00:52:30.718Z,100139.41
2023-03-24T00:54:32.442Z,100137.16
2023-03-24T00:56:35.256Z,100136.69
2023-03-24T00:58:36.696Z,100132.00
2023-03-24T01:00:38.384Z,100132.34
2023-03-24T01:02:40.229Z,100124.84
2023-03-24T01:04:41.708Z,100120.13
2023-03-24T01:06:43.485Z,100109.88
2023-03-24T01:08:45.695Z,100119.84
2023-03-24T01:10:49.357Z,100100.88
2023-03-24T01:12:50.760Z,100120.94
2023-03-24T01:14:52.590Z,100125.00
2023-03-24T01:16:54.015Z,100108.69
2023-03-24T01:18:55.501Z,100095.72
2023-03-24T01:20:56.883Z,100110.44
2023-03-24T01:22:59.955Z,100115.53
2023-03-24T01:25:01.525Z,100112.19
2023-03-24T01:27:03.383Z,100110.28
2023-03-24T01:29:05.145Z,100107.63
2023-03-24T01:31:08.949Z,100108.78
2023-03-24T01:33:10.485Z,100102.28
2023-03-24T01:35:12.497Z,100084.00
2023-03-24T01:37:14.319Z,100082.34
2023-03-24T01:39:15.751Z,100090.50
2023-03-24T01:41:17.292Z,100088.41
2023-03-24T01:43:23.141Z,100086.41
2023-03-24T01:45:45.031Z,100086.25
2023-03-24T01:47:46.537Z,100084.16
2023-03-24T01:49:53.085Z,100080.53
2023-03-24T01:51:59.550Z,100088.63
2023-03-24T01:54:25.266Z,100084.31
2023-03-24T01:56:31.727Z,100087.13
2023-03-24T01:58:36.638Z,100089.91
2023-03-24T02:00:38.281Z,100087.25
2023-03-24T02:02:46.701Z,100070.50
2023-03-24T02:04:51.198Z,100079.78
2023-03-24T02:06:53.330Z,100063.88
2023-03-24T02:09:00.284Z,100071.47
2023-03-24T02:13:21.390Z,100070.91
2023-03-24T02:15:28.034Z,100063.78
2023-03-24T02:17:45.538Z,100083.78
2023-03-24T02:20:00.263Z,100079.34
2023-03-24T02:22:20.428Z,100078.22
2023-03-24T02:24:55.192Z,100087.13
2023-03-24T02:26:59.504Z,100076.84
2023-03-24T02:29:29.542Z,100082.13
2023-03-24T02:31:49.256Z,100081.28
2023-03-24T02:34:02.614Z,100079.47
2023-03-24T02:36:22.685Z,100081.84
2023-03-24T02:38:42.716Z,100087.94
2023-03-24T02:41:24.606Z,100088.69
2023-03-24T02:43:43.001Z,100087.56
2023-03-24T02:46:03.066Z,100090.41
2023-03-24T02:48:22.831Z,100095.41
2023-03-24T02:50:40.626Z,100091.72
2023-03-24T02:53:07.404Z,100092.66
2023-03-24T02:55:16.605Z,100088.09
2023-03-24T02:57:32.660Z,100089.19
2023-03-24T02:59:51.891Z,100087.09
2023-03-24T03:02:05.967Z,100087.69
2023-03-24T03:04:33.615Z,100083.25
2023-03-24T03:06:39.629Z,100081.84
2023-03-24T03:08:42.151Z,100083.31
2023-03-24T03:10:46.822Z,100082.88
2023-03-24T03:12:53.082Z,100080.25
2023-03-24T03:15:02.080Z,100081.59
2023-03-24T03:17:20.997Z,100074.50
2023-03-24T03:19:28.976Z,100057.34
2023-03-24T03:21:41.431Z,100053.25
2023-03-24T03:23:49.755Z,100069.88
2023-03-24T03:25:58.361Z,100074.06
2023-03-24T03:28:03.305Z,100057.72
2023-03-24T03:30:35.442Z,100069.97
2023-03-24T03:32:44.153Z,100047.28
2023-03-24T03:34:50.455Z,100066.19
2023-03-24T03:37:01.625Z,100071.19
2023-03-24T03:39:12.024Z,100050.56
2023-03-24T03:41:16.406Z,100044.56
2023-03-24T03:43:18.449Z,100059.38
2023-03-24T03:45:19.860Z,100057.63
2023-03-24T03:47:21.638Z,100040.28
2023-03-24T03:49:23.082Z,100060.97
2023-03-24T03:51:24.514Z,100065.69
2023-03-24T03:53:51.290Z,100047.34
2023-03-24T03:55:53.417Z,100042.47
2023-03-24T03:57:55.541Z,100052.69
2023-03-24T03:59:57.172Z,100056.16
2023-03-24T04:01:58.788Z,100057.91
2023-03-24T04:04:15.475Z,100057.06
2023-03-24T04:07:01.145Z,100055.97
2023-03-24T04:09:09.747Z,100037.97
2023-03-24T04:11:28.095Z,100051.16
2023-03-24T04:13:32.467Z,100048.09
2023-03-24T04:15:35.683Z,100049.06
2023-03-24T04:18:02.866Z,100048.59
2023-03-24T04:20:18.912Z,100035.66
2023-03-24T04:22:27.225Z,100040.78
2023-03-24T04:24:45.859Z,99997.34
2023-03-24T04:26:57.542Z,100045.81
2023-03-24T04:29:05.110Z,100039.06
2023-03-24T04:31:20.544Z,100024.00
2023-03-24T04:33:24.876Z,100037.31
2023-03-24T04:35:35.017Z,100032.50
2023-03-24T04:37:37.354Z,100035.91
2023-03-24T04:39:43.073Z,100021.19
2023-03-24T04:41:46.503Z,100016.91
2023-03-24T04:43:48.955Z,100027.38
2023-03-24T04:45:52.270Z,100022.84
2023-03-24T04:47:59.143Z,100024.88
2023-03-24T04:50:03.065Z,100012.84
2023-03-24T04:52:05.770Z,100019.03
2023-03-24T04:54:07.171Z,100022.56
2023-03-24T04:56:27.793Z,100029.16
2023-03-24T04:58:29.496Z,100017.00
2023-03-24T05:00:30.951Z,100015.09
2023-03-24T05:02:32.557Z,100006.31
2023-03-24T05:04:34.252Z,100010.78
2023-03-24T05:06:35.659Z,100007.44
2023-03-24T05:08:37.144Z,99992.69
2023-03-24T05:10:38.960Z,99994.03
2023-03-24T05:12:40.409Z,100001.16
2023-03-24T05:14:42.010Z,99997.25
2023-03-24T05:16:43.662Z,100000.88
2023-03-24T05:18:45.422Z,99993.09
2023-03-24T05:20:47.027Z,99993.25
2023-03-24T05:22:49.017Z,99989.47
2023-03-24T05:24:50.437Z,99972.34
2023-03-24T05:26:52.079Z,99977.78
2023-03-24T05:28:54.237Z,99990.13
2023-03-24T05:30:55.752Z,99982.91
2023-03-24T05:32:57.239Z,99994.00
2023-03-24T05:34:58.781Z,99991.66
2023-03-24T05:37:00.221Z,99987.84
2023-03-24T05:39:01.643Z,99968.63
2023-03-24T05:41:03.302Z,99968.84
2023-03-24T05:43:04.750Z,99949.59
2023-03-24T05:45:06.968Z,99985.59
2023-03-24T05:47:08.833Z,99961.06
2023-03-24T05:49:10.251Z,99958.75
2023-03-24T05:51:11.737Z,99925.91
2023-03-24T05:53:13.282Z,99966.91
2023-03-24T05:55:14.773Z,99958.94
2023-03-24T05:57:16.499Z,99974.69
2023-03-24T05:59:18.187Z,99968.72
2023-03-24T06:01:19.797Z,99950.28
2023-03-24T06:03:21.687Z,99967.13
2023-03-24T06:05:23.834Z,99966.75
2023-03-24T06:07:25.304Z,99964.50
2023-03-24T06:09:27.534Z,99957.53
2023-03-24T06:11:29.212Z,99960.84
2023-03-24T06:13:31.229Z,99955.75
2023-03-24T06:15:32.866Z,99936.19
2023-03-24T06:17:34.628Z,99938.38
2023-03-24T06:19:36.013Z,99942.88
2023-03-24T06:21:37.483Z,99955.03
2023-03-24T06:23:39.057Z,99944.41
2023-03-24T06:25:40.452Z,99949.41
2023-03-24T06:27:45.548Z,99954.56
2023-03-24T06:29:47.220Z,99950.56
2023-03-24T06:31:48.802Z,99953.38
2023-03-24T06:33:53.486Z,99949.03
2023-03-24T06:35:55.116Z,99944.25
2023-03-24T06:37:56.550Z,99947.69
2023-03-24T06:39:58.030Z,99903.94
2023-03-24T06:41:59.635Z,99948.00
2023-03-24T06:44:01.022Z,99937.22
2023-03-24T06:46:02.459Z,99949.09
2023-03-24T06:48:04.382Z,99947.63
2023-03-24T06:50:06.402Z,99954.41
2023-03-24T06:52:07.821Z,99948.75
2023-03-24T06:54:09.675Z,99941.91
2023-03-24T06:56:11.783Z,99958.16
2023-03-24T06:58:13.161Z,99954.16
2023-03-24T07:00:15.163Z,99949.50
2023-03-24T07:02:16.631Z,99942.28
2023-03-24T07:04:18.096Z,99964.50
2023-03-24T07:06:19.676Z,99955.91
2023-03-24T07:10:25.358Z,99954.09
2023-03-24T07:12:27.593Z,99952.66
2023-03-24T07:14:29.076Z,99942.19
2023-03-24T07:16:30.681Z,99930.28
2023-03-24T07:18:32.611Z,99940.56
2023-03-24T07:20:34.033Z,99933.56
2023-03-24T07:22:35.495Z,99936.38
2023-03-24T07:24:37.917Z,99934.91
2023-03-24T07:26:39.308Z,99927.59
2023-03-24T07:28:40.756Z,99925.00
2023-03-24T07:30:42.679Z,99913.28
2023-03-24T07:32:44.138Z,99908.88
2023-03-24T07:34:45.547Z,99906.03
2023-03-24T07:36:47.337Z,99896.97
2023-03-24T07:38:48.718Z,99903.03
2023-03-24T07:40:50.140Z,99891.91
2023-03-24T07:42:51.771Z,99889.53
2023-03-24T07:44:53.187Z,99888.75
2023-03-24T07:46:54.588Z,99885.81
2023-03-24T07:48:58.092Z,99863.31
2023-03-24T07:51:00.974Z,99884.22
2023-03-24T07:53:02.388Z,99877.72
2023-03-24T07:55:05.336Z,99871.47
2023-03-24T07:57:10.416Z,99869.22
2023-03-24T07:59:12.499Z,99857.22
2023-03-24T08:01:14.420Z,99853.00
2023-03-24T08:03:15.961Z,99849.28
2023-03-24T08:05:18.858Z,99844.34
2023-03-24T08:07:21.135Z,99819.50
2023-03-24T08:09:22.550Z,99843.00
2023-03-24T08:11:23.943Z,99829.34
2023-03-24T08:13:26.146Z,99825.59
2023-03-24T08:15:28.189Z,99833.97
2023-03-24T08:17:29.632Z,99833.31
2023-03-24T08:19:31.261Z,99833.94
2023-03-24T08:21:32.734Z,99825.63
2023-03-24T08:23:34.132Z,99819.16
2023-03-24T08:25:35.926Z,99823.47
2023-03-24T08:27:38.763Z,99822.13
2023-03-24T08:29:40.199Z,99817.84
2023-03-24T08:31:41.757Z,99811.75
2023-03-24T08:33:43.146Z,99813.13
2023-03-24T08:35:44.899Z,99815.81
2023-03-24T08:37:46.624Z,99793.47
2023-03-24T08:39:48.047Z,99813.72
2023-03-24T08:41:49.717Z,99806.03
2023-03-24T08:43:51.212Z,99818.66
2023-03-24T08:45:52.641Z,99815.78
2023-03-24T08:47:55.603Z,99806.06
2023-03-24T08:49:57.392Z,99810.63
2023-03-24T08:52:00.074Z,99804.03
2023-03-24T08:54:01.533Z,99805.69
2023-03-24T08:56:03.132Z,99789.63
2023-03-24T08:58:04.609Z,99789.53
2023-03-24T09:00:06.851Z,99797.13
2023-03-24T09:02:13.243Z,99792.63
2023-03-24T09:04:14.704Z,99797.03
2023-03-24T09:06:16.535Z,99795.28
2023-03-24T09:08:19.492Z,99785.22
2023-03-24T09:10:21.302Z,99773.03
2023-03-24T09:12:22.835Z,99753.31
2023-03-24T09:14:24.430Z,99772.22
2023-03-24T09:16:25.955Z,99780.88
2023-03-24T09:18:28.607Z,99776.34
2023-03-24T09:20:30.501Z,99774.19
2023-03-24T09:22:31.882Z,99766.16
2023-03-24T09:24:33.282Z,99772.03
2023-03-24T09:26:35.135Z,99761.66
2023-03-24T09:28:36.573Z,99760.16
2023-03-24T09:30:38.104Z,99741.56
2023-03-24T09:32:39.799Z,99753.16
2023-03-24T09:34:41.246Z,99760.47
2023-03-24T09:36:42.670Z,99753.38
2023-03-24T09:38:44.225Z,99762.16
2023-03-24T09:40:48.972Z,99732.66
2023-03-24T09:42:57.845Z,99760.78
2023-03-24T09:45:04.968Z,99755.97
2023-03-24T09:47:24.909Z,99758.31
2023-03-24T09:49:30.298Z,99752.47
2023-03-24T09:51:38.229Z,99753.97
2023-03-24T09:53:57.607Z,99750.41
2023-03-24T09:56:05.231Z,99750.31
2023-03-24T09:58:11.173Z,99740.81
2023-03-24T10:00:16.702Z,99736.88
2023-03-24T10:02:20.577Z,99742.00
2023-03-24T10:04:26.468Z,99751.44
2023-03-24T10:06:39.635Z,99747.16
2023-03-24T10:08:50.044Z,99748.84
2023-03-24T10:11:00.739Z,99750.28
2023-03-24T10:13:07.595Z,99726.50
2023-03-24T10:15:38.491Z,99734.34
2023-03-24T10:18:01.430Z,99732.66
2023-03-24T10:20:18.039Z,99729.06
2023-03-24T10:22:27.942Z,99727.03
2023-03-24T10:24:41.307Z,99725.44
2023-03-24T10:26:49.169Z,99713.88
2023-03-24T10:29:11.064Z,99731.94
2023-03-24T10:31:17.453Z,99724.81
2023-03-24T10:33:18.885Z,99729.72
2023-03-24T10:35:29.354Z,99718.31
2023-03-24T10:37:31.010Z,99721.59
2023-03-24T10:39:41.986Z,99691.63
2023-03-24T10:41:47.793Z,99706.38
2023-03-24T10:43:51.981Z,99710.63
2023-03-24T10:45:55.509Z,99709.97
2023-03-24T10:47:58.812Z,99711.66
2023-03-24T10:50:14.297Z,99703.75
2023-03-24T10:52:16.779Z,99712.34
2023-03-24T10:54:26.437Z,99700.47
2023-03-24T10:56:43.130Z,99696.28
2023-03-24T10:58:46.084Z,99699.41
2023-03-24T11:00:48.037Z,99692.41
2023-03-24T11:03:25.961Z,99701.69
2023-03-24T11:05:30.610Z,99699.50
2023-03-24T11:07:40.176Z,99705.19
2023-03-24T11:09:44.622Z,99698.91
2023-03-24T11:11:46.274Z,99689.00
2023-03-24T11:13:55.588Z,99679.03
2023-03-24T11:16:15.387Z,99671.75
2023-03-24T11:18:17.012Z,99676.88
2023-03-24T11:20:29.416Z,99665.31
2023-03-24T11:22:30.980Z,99651.75
2023-03-24T11:24:38.377Z,99649.97
2023-03-24T11:26:40.640Z,99660.03
2023-03-24T11:28:56.146Z,99634.16
2023-03-24T11:30:57.754Z,99633.78
2023-03-24T11:32:59.868Z,99646.41
2023-03-24T11:35:17.730Z,99644.38
2023-03-24T11:37:22.703Z,99640.25
2023-03-24T11:39:26.558Z,99626.22
2023-03-24T11:41:28.266Z,99641.91
2023-03-24T11:43:30.122Z,99638.06
2023-03-24T11:45:38.796Z,99632.75
2023-03-24T11:47:40.427Z,99644.28
2023-03-24T11:50:11.142Z,99631.50
2023-03-24T11:52:22.057Z,99626.00
2023-03-24T11:54:36.585Z,99623.72
2023-03-24T11:57:11.614Z,99623.72
2023-03-24T11:59:16.059Z,99620.63
2023-03-24T12:01:20.301Z,99615.72
2023-03-24T12:03:39.406Z,99619.38
2023-03-24T12:05:56.312Z,99619.19
2023-03-24T12:08:06.552Z,99596.59
2023-03-24T12:10:36.801Z,99607.13
2023-03-24T12:12:51.672Z,99611.59
2023-03-24T12:15:02.236Z,99609.56
2023-03-24T12:17:24.352Z,99604.06
2023-03-24T12:19:55.608Z,99595.56
2023-03-24T12:22:15.433Z,99594.41
2023-03-24T12:24:31.648Z,99599.09
2023-03-24T12:26:34.624Z,99584.03
2023-03-24T12:29:02.022Z,99576.91
2023-03-24T12:31:37.385Z,99564.16
2023-03-24T12:34:16.614Z,99577.66
2023-03-24T12:36:30.311Z,99576.25
2023-03-24T12:39:01.734Z,99576.78
2023-03-24T12:41:11.007Z,99577.41
2023-03-24T12:43:27.655Z,99565.81
2023-03-24T12:45:46.217Z,99559.41
2023-03-24T12:48:29.495Z,99559.72
2023-03-24T12:50:43.005Z,99556.69
2023-03-24T12:55:18.312Z,99555.66
2023-03-24T12:57:25.388Z,99537.75
2023-03-24T12:59:36.169Z,99533.22
2023-03-24T13:02:09.681Z,99539.34
2023-03-24T13:04:30.352Z,99541.22
2023-03-24T13:06:47.755Z,99526.56
2023-03-24T13:09:13.954Z,99539.78
2023-03-24T13:11:29.997Z,99513.56
2023-03-24T13:13:38.847Z,99525.97
2023-03-24T13:15:46.331Z,99525.13
2023-03-24T13:17:53.750Z,99526.94
2023-03-24T13:19:55.888Z,99511.16
2023-03-24T13:21:58.200Z,99530.44
2023-03-24T13:24:08.587Z,99530.31
2023-03-24T13:26:39.556Z,99519.75
2023-03-24T13:28:54.232Z,99504.19
2023-03-24T13:30:57.225Z,99507.69
2023-03-24T13:33:05.148Z,99506.06
2023-03-24T13:35:21.578Z,99486.28
2023-03-24T13:37:27.470Z,99506.44
2023-03-24T13:39:29.877Z,99502.97
2023-03-24T13:41:36.526Z,99508.84
2023-03-24T13:43:57.450Z,99502.78
2023-03-24T13:46:07.202Z,99500.31
2023-03-24T13:48:11.727Z,99507.44
2023-03-24T13:50:13.904Z,99499.41
2023-03-24T13:52:28.720Z,99494.03
2023-03-24T13:54:31.304Z,99499.75
2023-03-24T13:56:40.962Z,99493.81
2023-03-24T13:58:50.540Z,99462.69
2023-03-24T14:01:18.972Z,99499.28
2023-03-24T14:03:38.625Z,99493.44
2023-03-24T14:05:58.183Z,99506.19
2023-03-24T14:08:05.690Z,99495.97
2023-03-24T14:10:16.561Z,99500.72
2023-03-24T14:12:20.670Z,99499.66
2023-03-24T14:14:23.336Z,99508.84
2023-03-24T14:16:30.759Z,99515.09
2023-03-24T14:18:32.160Z,99517.06
2023-03-24T14:20:38.209Z,99515.03
2023-03-24T14:22:46.749Z,99509.91
2023-03-24T14:24:58.426Z,99516.47
2023-03-24T14:27:00.305Z,99512.94
2023-03-24T14:29:01.907Z,99430.22
2023-03-24T14:31:15.427Z,99511.16
2023-03-24T14:33:25.504Z,99513.28
2023-03-24T14:35:35.889Z,99514.19
2023-03-24T14:37:50.045Z,99502.63
2023-03-24T14:39:52.498Z,99492.53
2023-03-24T14:41:55.091Z,99490.63
2023-03-24T14:43:59.488Z,99496.94
2023-03-24T14:46:04.036Z,99500.34
2023-03-24T14:48:21.734Z,99498.94
2023-03-24T14:50:23.248Z,99501.78
2023-03-24T14:52:30.054Z,99489.91
2023-03-24T14:54:40.803Z,99507.13
2023-03-24T14:56:45.215Z,99495.66
2023-03-24T14:58:50.739Z,99496.03
2023-03-24T15:01:07.120Z,99500.19
2023-03-24T15:03:26.018Z,99486.84
2023-03-24T15:05:27.578Z,99499.09
2023-03-24T15:07:29.239Z,99501.00
2023-03-24T15:09:30.635Z,99499.81
2023-03-24T15:11:35.374Z,99503.94
2023-03-24T15:13:45.223Z,99491.13
2023-03-24T15:15:47.858Z,99496.28
2023-03-24T15:17:52.166Z,99474.97
2023-03-24T15:19:54.626Z,99482.16
2023-03-24T15:22:01.640Z,99480.56
2023-03-24T15:24:20.748Z,99475.31
2023-03-24T15:26:23.945Z,99480.50
2023-03-24T15:28:28.014Z,99475.28
2023-03-24T15:30:29.675Z,99457.22
2023-03-24T15:32:31.348Z,99478.50
2023-03-24T15:34:46.723Z,99454.09
2023-03-24T15:37:00.232Z,99473.66
2023-03-24T15:39:01.891Z,99474.38
2023-03-24T15:41:07.720Z,99474.97
2023-03-24T15:43:19.358Z,99467.13
2023-03-24T15:45:43.316Z,99482.81
2023-03-24T15:47:44.762Z,99477.06
2023-03-24T15:49:49.918Z,99435.19
2023-03-24T15:52:25.404Z,99464.75
2023-03-24T15:54:44.559Z,99465.13
2023-03-24T15:57:00.006Z,99459.22
2023-03-24T15:59:14.568Z,99446.88
2023-03-24T16:01:20.205Z,99446.44
2023-03-24T16:03:23.382Z,99453.25
2023-03-24T16:05:27.907Z,99449.97
2023-03-24T16:07:33.060Z,99428.41
2023-03-24T16:09:36.988Z,99448.25
2023-03-24T16:11:38.457Z,99439.41
2023-03-24T16:13:41.799Z,99438.63
2023-03-24T16:15:56.684Z,99439.00
2023-03-24T16:17:58.221Z,99426.94
2023-03-24T16:20:00.019Z,99430.19
2023-03-24T16:22:01.815Z,99432.03
2023-03-24T16:24:03.430Z,99443.28
2023-03-24T16:26:05.406Z,99446.25
2023-03-24T16:28:11.913Z,99454.22
2023-03-24T16:30:21.414Z,99439.25
2023-03-24T16:32:22.862Z,99445.16
2023-03-24T16:34:24.802Z,99456.31
2023-03-24T16:36:26.306Z,99451.34
2023-03-24T16:38:27.775Z,99454.66
2023-03-24T16:40:46.844Z,99450.97
2023-03-24T16:42:48.557Z,99446.28
2023-03-24T16:44:49.963Z,99448.13
2023-03-24T16:46:53.768Z,99450.16
2023-03-24T16:48:55.658Z,99445.63
2023-03-24T16:50:57.115Z,99448.50
2023-03-24T16:52:58.936Z,99440.06
2023-03-24T16:55:00.416Z,99426.97
2023-03-24T16:57:01.973Z,99451.53
2023-03-24T16:59:04.500Z,99451.13
2023-03-24T17:01:27.146Z,99457.28
2023-03-24T17:03:28.697Z,99454.41
2023-03-24T17:05:45.323Z,99459.97
2023-03-24T17:07:46.819Z,99443.75
2023-03-24T17:09:48.208Z,99428.78
2023-03-24T17:11:56.141Z,99444.16
2023-03-24T17:13:57.962Z,99446.59
2023-03-24T17:15:59.377Z,99448.72
2023-03-24T17:18:00.993Z,99451.97
2023-03-24T17:20:04.665Z,99440.28
2023-03-24T17:22:07.178Z,99460.63
2023-03-24T17:24:09.647Z,99467.00
2023-03-24T17:26:11.134Z,99457.06
2023-03-24T17:28:16.649Z,99440.47
2023-03-24T17:30:21.439Z,99465.50
2023-03-24T17:32:28.517Z,99464.47
2023-03-24T17:34:29.957Z,99454.22
2023-03-24T17:36:31.453Z,99471.91
2023-03-24T17:38:32.972Z,99472.09
2023-03-24T17:40:34.365Z,99473.69
2023-03-24T17:42:37.872Z,99426.91
2023-03-24T17:44:39.279Z,99467.59
2023-03-24T17:46:40.760Z,99466.41
2023-03-24T17:48:45.105Z,99465.19
2023-03-24T17:50:47.931Z,99454.50
2023-03-24T17:52:49.464Z,99469.28
2023-03-24T17:54:51.177Z,99459.63
2023-03-24T17:56:52.779Z,99445.72
2023-03-24T17:58:54.245Z,99466.25
2023-03-24T18:00:57.771Z,99468.09
2023-03-24T18:02:59.373Z,99466.63
2023-03-24T18:05:00.797Z,99461.72
2023-03-24T18:07:02.350Z,99460.47
2023-03-24T18:09:04.104Z,99478.13
2023-03-24T18:11:11.057Z,99472.19
2023-03-24T18:13:12.936Z,99474.44
2023-03-24T18:15:14.493Z,99438.94
2023-03-24T18:17:16.293Z,99476.69
2023-03-24T18:19:17.948Z,99491.06
2023-03-24T18:21:19.933Z,99488.19
2023-03-24T18:23:21.742Z,99497.44
2023-03-24T18:25:23.214Z,99512.03
2023-03-24T18:27:24.839Z,99510.16
2023-03-24T18:29:26.294Z,99539.34
2023-03-24T18:31:27.866Z,99535.31
2023-03-24T18:33:29.504Z,99540.53
2023-03-24T18:35:30.976Z,99531.91
2023-03-24T18:37:32.611Z,99571.56
2023-03-24T18:39:34.873Z,99563.94
2023-03-24T18:41:37.144Z,99568.56
2023-03-24T18:43:38.860Z,99578.53
2023-03-24T18:45:40.505Z,99562.31
2023-03-24T18:47:41.947Z,99558.28
2023-03-24T18:49:43.722Z,99569.91
2023-03-24T18:51:45.141Z,99559.38
2023-03-24T18:53:47.944Z,99577.41
2023-03-24T18:55:50.858Z,99571.81
2023-03-24T18:57:52.712Z,99587.28
2023-03-24T18:59:54.207Z,99579.97
2023-03-24T19:01:55.822Z,99600.97
2023-03-24T19:03:57.405Z,99597.25
2023-03-24T19:06:02.768Z,99590.22
2023-03-24T19:08:04.577Z,99590.25
2023-03-24T19:10:06.496Z,99588.66
2023-03-24T19:12:07.978Z,99591.38
2023-03-24T19:14:09.609Z,99595.06
2023-03-24T19:16:11.956Z,99586.13
2023-03-24T19:18:14.220Z,99587.25
2023-03-24T19:20:15.902Z,99578.38
2023-03-24T19:22:17.402Z,99570.00
2023-03-24T19:24:18.917Z,99556.84
2023-03-24T19:26:20.600Z,99564.06
2023-03-24T19:28:23.605Z,99579.22
2023-03-24T19:30:25.003Z,99566.09
2023-03-24T19:32:26.563Z,99574.53
2023-03-24T19:34:27.976Z,99579.25
2023-03-24T19:36:29.351Z,99597.03
2023-03-24T19:38:30.998Z,99581.06
2023-03-24T19:40:32.516Z,99602.59
2023-03-24T19:42:33.936Z,99610.81
2023-03-24T19:44:35.432Z,99614.88
2023-03-24T19:46:36.976Z,99601.13
2023-03-24T19:48:38.414Z,99589.59
2023-03-24T19:50:39.938Z,99607.53
2023-03-24T19:52:41.373Z,99594.75
2023-03-24T19:54:42.796Z,99599.34
2023-03-24T19:56:44.314Z,99599.13
2023-03-24T19:58:45.960Z,99602.56
2023-03-24T20:00:47.552Z,99615.56
2023-03-24T20:02:49.204Z,99616.56
2023-03-24T20:04:51.601Z,99613.84
2023-03-24T20:06:53.069Z,99609.56
2023-03-24T20:08:54.653Z,99591.97
2023-03-24T20:10:56.056Z,99565.22
2023-03-24T20:12:57.650Z,99568.84
2023-03-24T20:14:59.262Z,99578.38
2023-03-24T20:17:00.730Z,99568.59
2023-03-24T20:19:02.304Z,99576.78
2023-03-24T20:21:03.871Z,99580.91
2023-03-24T20:23:05.369Z,99578.53
2023-03-24T20:25:07.555Z,99577.78
2023-03-24T20:27:09.106Z,99581.69
2023-03-24T20:29:10.580Z,99583.16
2023-03-24T20:31:12.153Z,99588.25
2023-03-24T20:33:13.853Z,99594.56
2023-03-24T20:35:15.393Z,99608.41
2023-03-24T20:37:16.884Z,99604.66
2023-03-24T20:39:18.393Z,99601.91
2023-03-24T20:41:19.826Z,99604.59
2023-03-24T20:43:21.417Z,99595.81
2023-03-24T20:45:22.930Z,99608.56
2023-03-24T20:47:24.429Z,99608.91
2023-03-24T20:49:26.011Z,99604.34
2023-03-24T20:51:27.583Z,99589.59
2023-03-24T20:53:30.098Z,99602.94
2023-03-24T20:55:31.563Z,99608.34
2023-03-24T20:57:33.632Z,99602.44
2023-03-24T20:59:35.947Z,99595.47
2023-03-24T21:01:37.588Z,99602.31
2023-03-24T21:03:39.153Z,99604.16
2023-03-24T21:05:40.608Z,99604.59
2023-03-24T21:07:42.081Z,99604.94
2023-03-24T21:09:43.572Z,99615.53
2023-03-24T21:11:44.988Z,99599.50
2023-03-24T21:13:46.673Z,99607.38
2023-03-24T21:15:48.349Z,99601.06
2023-03-24T21:17:50.563Z,99606.69
2023-03-24T21:19:52.156Z,99601.50
2023-03-24T21:21:53.630Z,99599.69
2023-03-24T21:23:55.043Z,99604.09
2023-03-24T21:25:56.511Z,99606.69
2023-03-24T21:27:58.857Z,99621.78
2023-03-24T21:30:00.281Z,99624.25
2023-03-24T21:32:01.752Z,99629.34
2023-03-24T21:34:03.351Z,99596.50
2023-03-24T21:36:05.179Z,99612.25
2023-03-24T21:38:06.758Z,99621.22
2023-03-24T21:40:08.481Z,99626.28
2023-03-24T21:42:09.879Z,99623.97
2023-03-24T21:44:11.386Z,99625.69
2023-03-24T21:46:16.099Z,99624.38
2023-03-24T21:48:17.579Z,99619.78
2023-03-24T21:50:19.552Z,99640.66
2023-03-24T21:52:21.133Z,99632.16
2023-03-24T21:54:22.508Z,99646.66
2023-03-24T21:56:23.984Z,99640.22
2023-03-24T21:58:25.465Z,99650.34
2023-03-24T22:00:26.865Z,99637.41
2023-03-24T22:02:28.765Z,99646.19
2023-03-24T22:04:30.247Z,99657.00
2023-03-24T22:06:31.676Z,99657.72
2023-03-24T22:08:33.135Z,99672.03
2023-03-24T22:10:36.015Z,99634.66
2023-03-24T22:12:37.407Z,99677.66
2023-03-24T22:14:39.002Z,99668.31
2023-03-24T22:16:40.435Z,99658.06
2023-03-24T22:18:42.268Z,99667.00
2023-03-24T22:20:43.941Z,99665.13
2023-03-24T22:22:46.009Z,99678.63
2023-03-24T22:24:47.429Z,99659.38
2023-03-24T22:26:48.990Z,99646.50
2023-03-24T22:28:50.554Z,99667.47
2023-03-24T22:30:51.967Z,99663.97
2023-03-24T22:32:54.104Z,99639.19
2023-03-24T22:34:55.656Z,99660.84
2023-03-24T22:36:57.109Z,99667.09
2023-03-24T22:38:58.574Z,99655.34
2023-03-24T22:41:03.251Z,99661.28
2023-03-24T22:43:04.644Z,99658.28
2023-03-24T22:45:06.710Z,99671.22
2023-03-24T22:47:08.384Z,99670.53
2023-03-24T22:49:09.801Z,99661.22
2023-03-24T22:51:11.445Z,99674.84
2023-03-24T22:53:12.976Z,99674.09
2023-03-24T22:55:14.500Z,99698.00
2023-03-24T22:57:16.122Z,99698.94
2023-03-24T22:59:18.040Z,99675.16
2023-03-24T23:01:19.499Z,99689.13
2023-03-24T23:03:21.224Z,99693.16
2023-03-24T23:05:22.827Z,99687.75
2023-03-24T23:07:24.273Z,99695.00
2023-03-24T23:09:25.785Z,99697.59
2023-03-24T23:11:27.495Z,99699.91
2023-03-24T23:13:28.911Z,99657.53
2023-03-24T23:15:30.456Z,99686.66
2023-03-24T23:17:32.073Z,99693.75
2023-03-24T23:19:33.584Z,99716.44
2023-03-24T23:21:35.372Z,99691.09
2023-03-24T23:23:38.537Z,99701.91
2023-03-24T23:25:42.871Z,99703.16
2023-03-24T23:27:44.847Z,99697.06
2023-03-24T23:29:46.783Z,99697.84
2023-03-24T23:31:48.202Z,99704.31
2023-03-24T23:33:52.526Z,99681.72
2023-03-24T23:35:58.535Z,99694.78
2023-03-24T23:38:00.160Z,99699.59
2023-03-24T23:40:04.187Z,99701.75
2023-03-24T23:42:05.833Z,99673.66
2023-03-24T23:44:07.282Z,99684.44
2023-03-24T23:46:09.016Z,99694.50
2023-03-24T23:48:10.441Z,99696.63
2023-03-24T23:50:12.930Z,99691.53
2023-03-24T23:52:14.412Z,99695.47
2023-03-24T23:54:15.887Z,99697.50
2023-03-24T23:56:17.378Z,99696.19
2023-03-24T23:58:19.196Z,99691.91
